sensor_id;sensor_type;location;lat;lon;timestamp;pressure;altitude;pressure_sealevel;temperature
43802;BMP280;29429;51.074;13.764;2024-01-11T00:01:51;101441.06;;;-6.57
43802;BMP280;29429;51.074;13.764;2024-01-11T00:04:18;101435.81;;;-6.55
43802;BMP280;29429;51.074;13.764;2024-01-11T00:06:45;101442.63;;;-6.53
43802;BMP280;29429;51.074;13.764;2024-01-11T00:09:12;101445.22;;;-6.53
43802;BMP280;29429;51.074;13.764;2024-01-11T00:11:39;101438.69;;;-6.63
43802;BMP280;29429;51.074;13.764;2024-01-11T00:14:06;101446.66;;;-6.69
43802;BMP280;29429;51.074;13.764;2024-01-11T00:16:34;101438.09;;;-6.71
43802;BMP280;29429;51.074;13.764;2024-01-11T00:19:01;101433.78;;;-6.70
43802;BMP280;29429;51.074;13.764;2024-01-11T00:21:28;101433.72;;;-6.69
43802;BMP280;29429;51.074;13.764;2024-01-11T00:23:55;101439.91;;;-6.73
43802;BMP280;29429;51.074;13.764;2024-01-11T00:26:22;101433.03;;;-6.74
43802;BMP280;29429;51.074;13.764;2024-01-11T00:28:49;101439.06;;;-6.73
43802;BMP280;29429;51.074;13.764;2024-01-11T00:31:16;101430.31;;;-6.71
43802;BMP280;29429;51.074;13.764;2024-01-11T00:33:43;101426.88;;;-6.71
43802;BMP280;29429;51.074;13.764;2024-01-11T00:36:10;101422.66;;;-6.74
43802;BMP280;29429;51.074;13.764;2024-01-11T00:38:37;101411.59;;;-6.79
43802;BMP280;29429;51.074;13.764;2024-01-11T00:41:04;101412.47;;;-6.80
43802;BMP280;29429;51.074;13.764;2024-01-11T00:43:31;101427.31;;;-6.84
43802;BMP280;29429;51.074;13.764;2024-01-11T00:45:58;101422.25;;;-6.87
43802;BMP280;29429;51.074;13.764;2024-01-11T00:48:25;101422.34;;;-6.90
43802;BMP280;29429;51.074;13.764;2024-01-11T00:50:53;101418.00;;;-6.89
43802;BMP280;29429;51.074;13.764;2024-01-11T00:53:20;101412.03;;;-6.91
43802;BMP280;29429;51.074;13.764;2024-01-11T00:55:47;101416.31;;;-6.90
43802;BMP280;29429;51.074;13.764;2024-01-11T00:58:14;101417.22;;;-6.91
43802;BMP280;29429;51.074;13.764;2024-01-11T01:00:41;101414.66;;;-6.93
43802;BMP280;29429;51.074;13.764;2024-01-11T01:03:08;101407.63;;;-6.89
43802;BMP280;29429;51.074;13.764;2024-01-11T01:05:35;101393.81;;;-6.90
43802;BMP280;29429;51.074;13.764;2024-01-11T01:08:02;101393.91;;;-6.91
43802;BMP280;29429;51.074;13.764;2024-01-11T01:10:29;101392.19;;;-6.92
43802;BMP280;29429;51.074;13.764;2024-01-11T01:12:56;101379.16;;;-6.91
43802;BMP280;29429;51.074;13.764;2024-01-11T01:15:23;101380.94;;;-6.91
43802;BMP280;29429;51.074;13.764;2024-01-11T01:17:50;101376.53;;;-6.89
43802;BMP280;29429;51.074;13.764;2024-01-11T01:20:17;101381.72;;;-6.89
43802;BMP280;29429;51.074;13.764;2024-01-11T01:22:44;101393.25;;;-6.98
43802;BMP280;29429;51.074;13.764;2024-01-11T01:25:11;101398.59;;;-7.02
43802;BMP280;29429;51.074;13.764;2024-01-11T01:27:38;101398.63;;;-7.04
43802;BMP280;29429;51.074;13.764;2024-01-11T01:30:06;101404.78;;;-7.06
43802;BMP280;29429;51.074;13.764;2024-01-11T01:32:33;101404.78;;;-7.06
43802;BMP280;29429;51.074;13.764;2024-01-11T01:35:01;101420.41;;;-7.09
43802;BMP280;29429;51.074;13.764;2024-01-11T01:37:28;101420.41;;;-7.09
43802;BMP280;29429;51.074;13.764;2024-01-11T01:39:55;101417.09;;;-7.13
43802;BMP280;29429;51.074;13.764;2024-01-11T01:42:22;101420.38;;;-7.08
43802;BMP280;29429;51.074;13.764;2024-01-11T01:44:49;101412.59;;;-7.08
43802;BMP280;29429;51.074;13.764;2024-01-11T01:47:17;101417.88;;;-7.11
43802;BMP280;29429;51.074;13.764;2024-01-11T01:49:46;101416.31;;;-7.15
43802;BMP280;29429;51.074;13.764;2024-01-11T01:52:16;101422.28;;;-7.13
43802;BMP280;29429;51.074;13.764;2024-01-11T01:54:43;101408.38;;;-7.10
43802;BMP280;29429;51.074;13.764;2024-01-11T01:57:12;101406.66;;;-7.11
43802;BMP280;29429;51.074;13.764;2024-01-11T01:59:41;101410.97;;;-7.10
43802;BMP280;29429;51.074;13.764;2024-01-11T02:02:09;101408.56;;;-7.16
43802;BMP280;29429;51.074;13.764;2024-01-11T02:04:37;101423.19;;;-7.14
43802;BMP280;29429;51.074;13.764;2024-01-11T02:07:06;101433.69;;;-7.18
43802;BMP280;29429;51.074;13.764;2024-01-11T02:09:33;101423.44;;;-7.21
43802;BMP280;29429;51.074;13.764;2024-01-11T02:12:01;101409.53;;;-7.19
43802;BMP280;29429;51.074;13.764;2024-01-11T02:14:29;101416.41;;;-7.18
43802;BMP280;29429;51.074;13.764;2024-01-11T02:16:56;101415.47;;;-7.15
43802;BMP280;29429;51.074;13.764;2024-01-11T02:19:23;101423.25;;;-7.15
43802;BMP280;29429;51.074;13.764;2024-01-11T02:21:54;101409.63;;;-7.22
43802;BMP280;29429;51.074;13.764;2024-01-11T02:24:21;101403.50;;;-7.19
43802;BMP280;29429;51.074;13.764;2024-01-11T02:27:04;101413.75;;;-7.16
43802;BMP280;29429;51.074;13.764;2024-01-11T02:29:35;101418.31;;;-7.23
43802;BMP280;29429;51.074;13.764;2024-01-11T02:32:03;101426.31;;;-7.30
43802;BMP280;29429;51.074;13.764;2024-01-11T02:34:32;101426.44;;;-7.33
43802;BMP280;29429;51.074;13.764;2024-01-11T02:37:00;101425.44;;;-7.29
43802;BMP280;29429;51.074;13.764;2024-01-11T02:39:27;101434.91;;;-7.28
43802;BMP280;29429;51.074;13.764;2024-01-11T02:41:56;101432.56;;;-7.36
43802;BMP280;29429;51.074;13.764;2024-01-11T02:44:25;101429.06;;;-7.35
43802;BMP280;29429;51.074;13.764;2024-01-11T02:46:52;101442.34;;;-7.44
43802;BMP280;29429;51.074;13.764;2024-01-11T02:49:19;101442.19;;;-7.39
43802;BMP280;29429;51.074;13.764;2024-01-11T02:51:46;101445.47;;;-7.34
43802;BMP280;29429;51.074;13.764;2024-01-11T02:54:13;101450.66;;;-7.34
43802;BMP280;29429;51.074;13.764;2024-01-11T02:56:40;101444.72;;;-7.38
43802;BMP280;29429;51.074;13.764;2024-01-11T02:59:07;101442.19;;;-7.39
43802;BMP280;29429;51.074;13.764;2024-01-11T03:01:34;101439.69;;;-7.43
43802;BMP280;29429;51.074;13.764;2024-01-11T03:04:01;101441.47;;;-7.45
43802;BMP280;29429;51.074;13.764;2024-01-11T03:06:28;101442.28;;;-7.43
43802;BMP280;29429;51.074;13.764;2024-01-11T03:08:55;101448.47;;;-7.47
43802;BMP280;29429;51.074;13.764;2024-01-11T03:11:22;101436.50;;;-7.51
43802;BMP280;29429;51.074;13.764;2024-01-11T03:13:49;101456.25;;;-7.47
43802;BMP280;29429;51.074;13.764;2024-01-11T03:16:16;101458.00;;;-7.49
43802;BMP280;29429;51.074;13.764;2024-01-11T03:18:43;101442.38;;;-7.46
43802;BMP280;29429;51.074;13.764;2024-01-11T03:21:10;101429.31;;;-7.43
43802;BMP280;29429;51.074;13.764;2024-01-11T03:23:37;101429.25;;;-7.41
43802;BMP280;29429;51.074;13.764;2024-01-11T03:26:12;101437.78;;;-7.37
43802;BMP280;29429;51.074;13.764;2024-01-11T03:28:39;101424.19;;;-7.44
43802;BMP280;29429;51.074;13.764;2024-01-11T03:31:07;101409.44;;;-7.42
43802;BMP280;29429;51.074;13.764;2024-01-11T03:33:35;101418.91;;;-7.41
43802;BMP280;29429;51.074;13.764;2024-01-11T03:36:10;101411.38;;;-7.49
43802;BMP280;29429;51.074;13.764;2024-01-11T03:38:38;101394.19;;;-7.51
43802;BMP280;29429;51.074;13.764;2024-01-11T03:41:09;101388.91;;;-7.47
43802;BMP280;29429;51.074;13.764;2024-01-11T03:43:37;101375.94;;;-7.47
43802;BMP280;29429;51.074;13.764;2024-01-11T03:46:04;101382.75;;;-7.44
43802;BMP280;29429;51.074;13.764;2024-01-11T03:48:31;101384.41;;;-7.42
43802;BMP280;29429;51.074;13.764;2024-01-11T03:50:58;101366.38;;;-7.45
43802;BMP280;29429;51.074;13.764;2024-01-11T03:53:25;101368.97;;;-7.45
43802;BMP280;29429;51.074;13.764;2024-01-11T03:55:53;101381.16;;;-7.48
43802;BMP280;29429;51.074;13.764;2024-01-11T03:58:20;101379.69;;;-7.55
43802;BMP280;29429;51.074;13.764;2024-01-11T04:00:47;101373.53;;;-7.53
43802;BMP280;29429;51.074;13.764;2024-01-11T04:03:14;101380.41;;;-7.52
43802;BMP280;29429;51.074;13.764;2024-01-11T04:05:41;101382.84;;;-7.47
43802;BMP280;29429;51.074;13.764;2024-01-11T04:08:08;101379.59;;;-7.54
43802;BMP280;29429;51.074;13.764;2024-01-11T04:10:35;101378.06;;;-7.59
43802;BMP280;29429;51.074;13.764;2024-01-11T04:13:02;101375.38;;;-7.56
43802;BMP280;29429;51.074;13.764;2024-01-11T04:15:29;101376.94;;;-7.51
43802;BMP280;29429;51.074;13.764;2024-01-11T04:17:56;101381.91;;;-7.45
43802;BMP280;29429;51.074;13.764;2024-01-11T04:20:23;101383.66;;;-7.45
43802;BMP280;29429;51.074;13.764;2024-01-11T04:22:51;101390.75;;;-7.52
43802;BMP280;29429;51.074;13.764;2024-01-11T04:25:18;101404.03;;;-7.61
43802;BMP280;29429;51.074;13.764;2024-01-11T04:27:45;101413.72;;;-7.67
43802;BMP280;29429;51.074;13.764;2024-01-11T04:30:12;101411.22;;;-7.70
43802;BMP280;29429;51.074;13.764;2024-01-11T04:32:39;101412.91;;;-7.69
43802;BMP280;29429;51.074;13.764;2024-01-11T04:35:07;101431.00;;;-7.68
43802;BMP280;29429;51.074;13.764;2024-01-11T04:37:35;101423.44;;;-7.74
43802;BMP280;29429;51.074;13.764;2024-01-11T04:40:03;101432.06;;;-7.73
43802;BMP280;29429;51.074;13.764;2024-01-11T04:42:30;101429.47;;;-7.73
43802;BMP280;29429;51.074;13.764;2024-01-11T04:44:57;101425.09;;;-7.73
43802;BMP280;29429;51.074;13.764;2024-01-11T04:47:24;101430.09;;;-7.67
43802;BMP280;29429;51.074;13.764;2024-01-11T04:49:51;101441.06;;;-7.59
43802;BMP280;29429;51.074;13.764;2024-01-11T04:52:18;101436.78;;;-7.60
43802;BMP280;29429;51.074;13.764;2024-01-11T04:54:45;101438.78;;;-7.68
43802;BMP280;29429;51.074;13.764;2024-01-11T04:57:12;101431.09;;;-7.71
43802;BMP280;29429;51.074;13.764;2024-01-11T04:59:39;101439.34;;;-7.60
43802;BMP280;29429;51.074;13.764;2024-01-11T05:02:06;101432.69;;;-7.67
43802;BMP280;29429;51.074;13.764;2024-01-11T05:04:33;101442.88;;;-7.61
43802;BMP280;29429;51.074;13.764;2024-01-11T05:07:00;101422.06;;;-7.58
43802;BMP280;29429;51.074;13.764;2024-01-11T05:09:27;101419.31;;;-7.53
43802;BMP280;29429;51.074;13.764;2024-01-11T05:11:54;101418.91;;;-7.41
43802;BMP280;29429;51.074;13.764;2024-01-11T05:14:21;101413.69;;;-7.39
43802;BMP280;29429;51.074;13.764;2024-01-11T05:16:48;101409.19;;;-7.34
43802;BMP280;29429;51.074;13.764;2024-01-11T05:19:15;101411.78;;;-7.34
43802;BMP280;29429;51.074;13.764;2024-01-11T05:21:42;101409.09;;;-7.31
43802;BMP280;29429;51.074;13.764;2024-01-11T05:24:09;101410.91;;;-7.33
43802;BMP280;29429;51.074;13.764;2024-01-11T05:26:38;101416.13;;;-7.35
43802;BMP280;29429;51.074;13.764;2024-01-11T05:29:05;101433.50;;;-7.38
43802;BMP280;29429;51.074;13.764;2024-01-11T05:31:32;101432.84;;;-7.45
43802;BMP280;29429;51.074;13.764;2024-01-11T05:33:59;101428.38;;;-7.40
43802;BMP280;29429;51.074;13.764;2024-01-11T05:36:26;101426.44;;;-7.33
43802;BMP280;29429;51.074;13.764;2024-01-11T05:38:53;101416.09;;;-7.33
43802;BMP280;29429;51.074;13.764;2024-01-11T05:41:20;101417.81;;;-7.34
43802;BMP280;29429;51.074;13.764;2024-01-11T05:43:47;101417.81;;;-7.34
43802;BMP280;29429;51.074;13.764;2024-01-11T05:46:14;101430.13;;;-7.41
43802;BMP280;29429;51.074;13.764;2024-01-11T05:48:42;101438.03;;;-7.45
43802;BMP280;29429;51.074;13.764;2024-01-11T05:51:09;101433.81;;;-7.48
43802;BMP280;29429;51.074;13.764;2024-01-11T05:53:36;101431.22;;;-7.48
43802;BMP280;29429;51.074;13.764;2024-01-11T05:56:08;101444.06;;;-7.45
43802;BMP280;29429;51.074;13.764;2024-01-11T05:58:36;101447.00;;;-7.55
43802;BMP280;29429;51.074;13.764;2024-01-11T06:01:04;101453.03;;;-7.55
43802;BMP280;29429;51.074;13.764;2024-01-11T06:03:31;101440.88;;;-7.53
43802;BMP280;29429;51.074;13.764;2024-01-11T06:06:02;101436.41;;;-7.48
43802;BMP280;29429;51.074;13.764;2024-01-11T06:08:30;101434.56;;;-7.44
43802;BMP280;29429;51.074;13.764;2024-01-11T06:10:58;101436.25;;;-7.43
43802;BMP280;29429;51.074;13.764;2024-01-11T06:13:25;101434.44;;;-7.41
43802;BMP280;29429;51.074;13.764;2024-01-11T06:15:53;101444.97;;;-7.46
43802;BMP280;29429;51.074;13.764;2024-01-11T06:18:20;101458.22;;;-7.55
43802;BMP280;29429;51.074;13.764;2024-01-11T06:20:47;101459.16;;;-7.57
43802;BMP280;29429;51.074;13.764;2024-01-11T06:23:14;101454.72;;;-7.54
43802;BMP280;29429;51.074;13.764;2024-01-11T06:25:41;101457.91;;;-7.46
43802;BMP280;29429;51.074;13.764;2024-01-11T06:28:09;101445.91;;;-7.48
43802;BMP280;29429;51.074;13.764;2024-01-11T06:30:36;101465.69;;;-7.46
43802;BMP280;29429;51.074;13.764;2024-01-11T06:33:04;101451.09;;;-7.48
43802;BMP280;29429;51.074;13.764;2024-01-11T06:35:31;101441.41;;;-7.43
43802;BMP280;29429;51.074;13.764;2024-01-11T06:37:58;101442.94;;;-7.36
43802;BMP280;29429;51.074;13.764;2024-01-11T06:40:25;101453.25;;;-7.34
43802;BMP280;29429;51.074;13.764;2024-01-11T06:42:52;101435.16;;;-7.36
43802;BMP280;29429;51.074;13.764;2024-01-11T06:45:20;101419.50;;;-7.33
43802;BMP280;29429;51.074;13.764;2024-01-11T06:47:47;101424.53;;;-7.28
43802;BMP280;29429;51.074;13.764;2024-01-11T06:50:16;101428.13;;;-7.32
43802;BMP280;29429;51.074;13.764;2024-01-11T06:52:43;101403.00;;;-7.30
43802;BMP280;29429;51.074;13.764;2024-01-11T06:55:10;101399.38;;;-7.25
43802;BMP280;29429;51.074;13.764;2024-01-11T06:57:37;101403.59;;;-7.22
43802;BMP280;29429;51.074;13.764;2024-01-11T07:00:06;101390.59;;;-7.21
43802;BMP280;29429;51.074;13.764;2024-01-11T07:02:34;101391.31;;;-7.17
43802;BMP280;29429;51.074;13.764;2024-01-11T07:05:02;101390.25;;;-7.10
43802;BMP280;29429;51.074;13.764;2024-01-11T07:07:30;101386.63;;;-7.06
43802;BMP280;29429;51.074;13.764;2024-01-11T07:09:57;101389.13;;;-7.03
43802;BMP280;29429;51.074;13.764;2024-01-11T07:12:27;101395.09;;;-7.01
43802;BMP280;29429;51.074;13.764;2024-01-11T07:15:05;101379.41;;;-6.97
43802;BMP280;29429;51.074;13.764;2024-01-11T07:17:38;101380.94;;;-6.91
43802;BMP280;29429;51.074;13.764;2024-01-11T07:20:12;101391.31;;;-6.91
43802;BMP280;29429;51.074;13.764;2024-01-11T07:22:47;101377.47;;;-6.92
43802;BMP280;29429;51.074;13.764;2024-01-11T07:25:14;101385.00;;;-6.84
43802;BMP280;29429;51.074;13.764;2024-01-11T07:27:41;101377.09;;;-6.81
43802;BMP280;29429;51.074;13.764;2024-01-11T07:30:10;101362.06;;;-6.71
43802;BMP280;29429;51.074;13.764;2024-01-11T07:32:38;101356.56;;;-6.64
43802;BMP280;29429;51.074;13.764;2024-01-11T07:35:05;101363.25;;;-6.57
43802;BMP280;29429;51.074;13.764;2024-01-11T07:37:40;101385.53;;;-6.51
43802;BMP280;29429;51.074;13.764;2024-01-11T07:40:07;101385.53;;;-6.51
43802;BMP280;29429;51.074;13.764;2024-01-11T07:42:38;101371.34;;;-6.43
43802;BMP280;29429;51.074;13.764;2024-01-11T07:45:09;101375.28;;;-6.33
43802;BMP280;29429;51.074;13.764;2024-01-11T07:47:37;101373.19;;;-6.23
43802;BMP280;29429;51.074;13.764;2024-01-11T07:50:06;101361.75;;;-6.18
43802;BMP280;29429;51.074;13.764;2024-01-11T07:52:33;101370.97;;;-6.10
43802;BMP280;29429;51.074;13.764;2024-01-11T07:55:00;101359.59;;;-6.06
43802;BMP280;29429;51.074;13.764;2024-01-11T07:57:37;101367.06;;;-5.99
43802;BMP280;29429;51.074;13.764;2024-01-11T08:00:05;101376.38;;;-5.93
43802;BMP280;29429;51.074;13.764;2024-01-11T08:02:41;101385.84;;;-5.92
43802;BMP280;29429;51.074;13.764;2024-01-11T08:05:08;101398.59;;;-5.86
43802;BMP280;29429;51.074;13.764;2024-01-11T08:07:35;101401.03;;;-5.83
43802;BMP280;29429;51.074;13.764;2024-01-11T08:10:03;101405.50;;;-5.85
43802;BMP280;29429;51.074;13.764;2024-01-11T08:12:31;101413.91;;;-5.80
43802;BMP280;29429;51.074;13.764;2024-01-11T08:14:58;101406.50;;;-5.69
43802;BMP280;29429;51.074;13.764;2024-01-11T08:17:26;101388.09;;;-5.63
43802;BMP280;29429;51.074;13.764;2024-01-11T08:19:54;101369.34;;;-5.49
43802;BMP280;29429;51.074;13.764;2024-01-11T08:22:22;101377.22;;;-5.31
43802;BMP280;29429;51.074;13.764;2024-01-11T08:24:54;101388.91;;;-5.21
43802;BMP280;29429;51.074;13.764;2024-01-11T08:27:26;101399.66;;;-5.08
43802;BMP280;29429;51.074;13.764;2024-01-11T08:29:53;101378.38;;;-4.98
43802;BMP280;29429;51.074;13.764;2024-01-11T08:32:20;101389.97;;;-4.84
43802;BMP280;29429;51.074;13.764;2024-01-11T08:34:57;101399.91;;;-4.74
43802;BMP280;29429;51.074;13.764;2024-01-11T08:37:25;101390.84;;;-4.65
43802;BMP280;29429;51.074;13.764;2024-01-11T08:39:52;101382.63;;;-4.56
43802;BMP280;29429;51.074;13.764;2024-01-11T08:42:19;101376.88;;;-4.44
43802;BMP280;29429;51.074;13.764;2024-01-11T08:44:46;101363.31;;;-4.32
43802;BMP280;29429;51.074;13.764;2024-01-11T08:47:14;101372.91;;;-4.15
43802;BMP280;29429;51.074;13.764;2024-01-11T08:49:42;101369.25;;;-3.93
43802;BMP280;29429;51.074;13.764;2024-01-11T08:52:09;101376.91;;;-3.71
43802;BMP280;29429;51.074;13.764;2024-01-11T08:54:37;101383.34;;;-3.61
43802;BMP280;29429;51.074;13.764;2024-01-11T08:57:04;101376.22;;;-3.57
43802;BMP280;29429;51.074;13.764;2024-01-11T08:59:31;101370.22;;;-3.59
43802;BMP280;29429;51.074;13.764;2024-01-11T09:02:00;101361.03;;;-3.66
43802;BMP280;29429;51.074;13.764;2024-01-11T09:04:41;101366.38;;;-3.70
43802;BMP280;29429;51.074;13.764;2024-01-11T09:07:08;101374.34;;;-3.73
43802;BMP280;29429;51.074;13.764;2024-01-11T09:09:36;101370.88;;;-3.73
43802;BMP280;29429;51.074;13.764;2024-01-11T09:12:16;101385.09;;;-3.79
43802;BMP280;29429;51.074;13.764;2024-01-11T09:14:43;101381.63;;;-3.79
43802;BMP280;29429;51.074;13.764;2024-01-11T09:17:11;101387.69;;;-3.79
43802;BMP280;29429;51.074;13.764;2024-01-11T09:19:41;101383.00;;;-3.72
43802;BMP280;29429;51.074;13.764;2024-01-11T09:22:08;101377.16;;;-3.58
43802;BMP280;29429;51.074;13.764;2024-01-11T09:24:37;101376.06;;;-3.54
43802;BMP280;29429;51.074;13.764;2024-01-11T09:27:06;101380.22;;;-3.50
43802;BMP280;29429;51.074;13.764;2024-01-11T09:29:33;101382.34;;;-3.41
43802;BMP280;29429;51.074;13.764;2024-01-11T09:32:00;101386.13;;;-3.30
43802;BMP280;29429;51.074;13.764;2024-01-11T09:34:28;101374.31;;;-3.20
43802;BMP280;29429;51.074;13.764;2024-01-11T09:36:55;101369.00;;;-3.01
43802;BMP280;29429;51.074;13.764;2024-01-11T09:39:25;101380.81;;;-2.77
43802;BMP280;29429;51.074;13.764;2024-01-11T09:42:05;101381.53;;;-2.58
43802;BMP280;29429;51.074;13.764;2024-01-11T09:44:33;101388.25;;;-2.54
43802;BMP280;29429;51.074;13.764;2024-01-11T09:47:02;101390.25;;;-2.41
43802;BMP280;29429;51.074;13.764;2024-01-11T09:49:33;101393.72;;;-2.25
43802;BMP280;29429;51.074;13.764;2024-01-11T09:52:01;101398.28;;;-2.13
43802;BMP280;29429;51.074;13.764;2024-01-11T09:54:29;101378.22;;;-1.97
43802;BMP280;29429;51.074;13.764;2024-01-11T09:56:59;101375.16;;;-1.74
43802;BMP280;29429;51.074;13.764;2024-01-11T09:59:28;101377.00;;;-1.60
43802;BMP280;29429;51.074;13.764;2024-01-11T10:01:55;101349.31;;;-1.49
43802;BMP280;29429;51.074;13.764;2024-01-11T10:04:22;101352.06;;;-1.36
43802;BMP280;29429;51.074;13.764;2024-01-11T10:06:51;101354.31;;;-1.30
43802;BMP280;29429;51.074;13.764;2024-01-11T10:09:19;101355.34;;;-1.33
43802;BMP280;29429;51.074;13.764;2024-01-11T10:11:46;101344.88;;;-1.33
43802;BMP280;29429;51.074;13.764;2024-01-11T10:14:14;101339.66;;;-1.33
43802;BMP280;29429;51.074;13.764;2024-01-11T10:16:42;101353.16;;;-1.40
43802;BMP280;29429;51.074;13.764;2024-01-11T10:19:10;101352.84;;;-1.50
43802;BMP280;29429;51.074;13.764;2024-01-11T10:21:40;101338.91;;;-1.64
43802;BMP280;29429;51.074;13.764;2024-01-11T10:24:07;101330.13;;;-1.79
43802;BMP280;29429;51.074;13.764;2024-01-11T10:26:35;101342.78;;;-1.87
43802;BMP280;29429;51.074;13.764;2024-01-11T10:29:02;101342.22;;;-1.92
43802;BMP280;29429;51.074;13.764;2024-01-11T10:31:33;101321.41;;;-1.94
43802;BMP280;29429;51.074;13.764;2024-01-11T10:34:01;101323.34;;;-1.97
43802;BMP280;29429;51.074;13.764;2024-01-11T10:36:31;101320.88;;;-2.00
43802;BMP280;29429;51.074;13.764;2024-01-11T10:39:02;101326.22;;;-2.02
43802;BMP280;29429;51.074;13.764;2024-01-11T10:41:40;101319.81;;;-1.96
43802;BMP280;29429;51.074;13.764;2024-01-11T10:44:19;101317.59;;;-1.88
43802;BMP280;29429;51.074;13.764;2024-01-11T10:46:50;101317.06;;;-1.79
43802;BMP280;29429;51.074;13.764;2024-01-11T10:49:19;101315.78;;;-1.72
43802;BMP280;29429;51.074;13.764;2024-01-11T10:52:00;101302.19;;;-1.63
43802;BMP280;29429;51.074;13.764;2024-01-11T10:54:28;101297.44;;;-1.56
43802;BMP280;29429;51.074;13.764;2024-01-11T10:56:59;101306.13;;;-1.56
43802;BMP280;29429;51.074;13.764;2024-01-11T10:59:28;101306.13;;;-1.56
43802;BMP280;29429;51.074;13.764;2024-01-11T11:02:05;101299.13;;;-1.55
43802;BMP280;29429;51.074;13.764;2024-01-11T11:04:41;101298.19;;;-1.54
43802;BMP280;29429;51.074;13.764;2024-01-11T11:07:09;101284.84;;;-1.50
43802;BMP280;29429;51.074;13.764;2024-01-11T11:09:39;101265.44;;;-1.46
43802;BMP280;29429;51.074;13.764;2024-01-11T11:12:11;101267.78;;;-1.41
43802;BMP280;29429;51.074;13.764;2024-01-11T11:14:38;101267.66;;;-1.40
43802;BMP280;29429;51.074;13.764;2024-01-11T11:17:05;101262.34;;;-1.38
43802;BMP280;29429;51.074;13.764;2024-01-11T11:19:33;101260.94;;;-1.30
43802;BMP280;29429;51.074;13.764;2024-01-11T11:22:03;101263.94;;;-1.22
43802;BMP280;29429;51.074;13.764;2024-01-11T11:24:34;101252.94;;;-1.12
43802;BMP280;29429;51.074;13.764;2024-01-11T11:30:09;101246.19;;;-0.88
43802;BMP280;29429;51.074;13.764;2024-01-11T11:32:38;101248.34;;;-0.67
43802;BMP280;29429;51.074;13.764;2024-01-11T11:35:06;101236.16;;;-0.53
43802;BMP280;29429;51.074;13.764;2024-01-11T11:37:37;101230.56;;;-0.35
43802;BMP280;29429;51.074;13.764;2024-01-11T11:40:10;101229.22;;;-0.28
43802;BMP280;29429;51.074;13.764;2024-01-11T11:42:39;101224.88;;;-0.15
43802;BMP280;29429;51.074;13.764;2024-01-11T11:45:09;101222.06;;;-0.12
43802;BMP280;29429;51.074;13.764;2024-01-11T11:47:38;101210.56;;;0.04
43802;BMP280;29429;51.074;13.764;2024-01-11T11:50:11;101224.44;;;0.18
43802;BMP280;29429;51.074;13.764;2024-01-11T11:52:40;101219.41;;;0.15
43802;BMP280;29429;51.074;13.764;2024-01-11T11:55:09;101228.66;;;0.21
43802;BMP280;29429;51.074;13.764;2024-01-11T11:57:36;101223.59;;;0.18
43802;BMP280;29429;51.074;13.764;2024-01-11T12:00:04;101232.41;;;0.29
43802;BMP280;29429;51.074;13.764;2024-01-11T12:02:39;101228.97;;;0.29
43802;BMP280;29429;51.074;13.764;2024-01-11T12:05:06;101223.09;;;0.25
43802;BMP280;29429;51.074;13.764;2024-01-11T12:07:34;101213.22;;;0.29
43802;BMP280;29429;51.074;13.764;2024-01-11T12:10:02;101212.06;;;0.20
43802;BMP280;29429;51.074;13.764;2024-01-11T12:12:30;101206.38;;;0.14
43802;BMP280;29429;51.074;13.764;2024-01-11T12:14:58;101211.63;;;0.14
43802;BMP280;29429;51.074;13.764;2024-01-11T12:17:26;101201.13;;;0.14
43802;BMP280;29429;51.074;13.764;2024-01-11T12:19:54;101197.69;;;0.13
43802;BMP280;29429;51.074;13.764;2024-01-11T12:22:24;101198.31;;;0.17
43802;BMP280;29429;51.074;13.764;2024-01-11T12:24:51;101214.28;;;0.26
43802;BMP280;29429;51.074;13.764;2024-01-11T12:27:19;101200.13;;;0.29
43802;BMP280;29429;51.074;13.764;2024-01-11T12:29:47;101197.91;;;0.35
43802;BMP280;29429;51.074;13.764;2024-01-11T12:32:25;101193.63;;;0.34
43802;BMP280;29429;51.074;13.764;2024-01-11T12:34:53;101186.69;;;0.46
43802;BMP280;29429;51.074;13.764;2024-01-11T12:37:21;101178.59;;;0.49
43802;BMP280;29429;51.074;13.764;2024-01-11T12:39:48;101184.16;;;0.57
43802;BMP280;29429;51.074;13.764;2024-01-11T12:42:16;101184.16;;;0.57
43802;BMP280;29429;51.074;13.764;2024-01-11T12:44:44;101191.53;;;0.52
43802;BMP280;29429;51.074;13.764;2024-01-11T12:47:13;101178.59;;;0.49
43802;BMP280;29429;51.074;13.764;2024-01-11T12:49:44;101170.53;;;0.39
43802;BMP280;29429;51.074;13.764;2024-01-11T12:52:19;101167.47;;;0.33
43802;BMP280;29429;51.074;13.764;2024-01-11T12:54:46;101173.56;;;0.33
43802;BMP280;29429;51.074;13.764;2024-01-11T12:57:20;101174.50;;;0.32
43802;BMP280;29429;51.074;13.764;2024-01-11T12:59:48;101175.88;;;0.38
43802;BMP280;29429;51.074;13.764;2024-01-11T13:02:16;101176.41;;;0.43
43802;BMP280;29429;51.074;13.764;2024-01-11T13:04:46;101176.06;;;0.35
43802;BMP280;29429;51.074;13.764;2024-01-11T13:07:13;101183.22;;;0.33
43802;BMP280;29429;51.074;13.764;2024-01-11T13:09:42;101191.50;;;0.27
43802;BMP280;29429;51.074;13.764;2024-01-11T13:12:10;101184.34;;;0.16
43802;BMP280;29429;51.074;13.764;2024-01-11T13:14:38;101194.41;;;0.10
43802;BMP280;29429;51.074;13.764;2024-01-11T13:17:07;101197.84;;;-0.03
43802;BMP280;29429;51.074;13.764;2024-01-11T13:19:34;101183.91;;;-0.03
43802;BMP280;29429;51.074;13.764;2024-01-11T13:22:02;101184.13;;;0.07
43802;BMP280;29429;51.074;13.764;2024-01-11T13:24:30;101186.16;;;0.16
43802;BMP280;29429;51.074;13.764;2024-01-11T13:26:57;101172.84;;;0.31
43802;BMP280;29429;51.074;13.764;2024-01-11T13:29:24;101170.22;;;0.44
43802;BMP280;29429;51.074;13.764;2024-01-11T13:31:52;101161.28;;;0.46
43802;BMP280;29429;51.074;13.764;2024-01-11T13:34:19;101160.13;;;0.38
43802;BMP280;29429;51.074;13.764;2024-01-11T13:36:47;101158.88;;;0.31
43802;BMP280;29429;51.074;13.764;2024-01-11T13:39:14;101150.69;;;0.23
43802;BMP280;29429;51.074;13.764;2024-01-11T13:41:44;101155.59;;;0.15
43802;BMP280;29429;51.074;13.764;2024-01-11T13:44:12;101152.66;;;-0.06
43802;BMP280;29429;51.074;13.764;2024-01-11T13:46:39;101175.78;;;-0.13
43802;BMP280;29429;51.074;13.764;2024-01-11T13:49:06;101177.88;;;-0.18
43802;BMP280;29429;51.074;13.764;2024-01-11T13:51:33;101183.84;;;-0.16
43802;BMP280;29429;51.074;13.764;2024-01-11T13:54:12;101190.78;;;-0.15
43802;BMP280;29429;51.074;13.764;2024-01-11T13:56:39;101187.44;;;-0.17